sensor_id;sensor_type;location;lat;lon;timestamp;pressure;altitude;pressure_sealevel;temperature;humidity
38022;BME280;23832;43.216;27.946;2023-02-08T00:01:13;102594.16;;;5.08;51.78
38022;BME280;23832;43.216;27.946;2023-02-08T00:03:15;102589.03;;;5.07;51.78
38022;BME280;23832;43.216;27.946;2023-02-08T00:05:18;102589.03;;;5.07;51.59
38022;BME280;23832;43.216;27.946;2023-02-08T00:07:20;102587.34;;;5.06;51.54
38022;BME280;23832;43.216;27.946;2023-02-08T00:09:21;102586.50;;;5.05;51.61
38022;BME280;23832;43.216;27.946;2023-02-08T00:11:23;102589.03;;;5.07;51.88
38022;BME280;23832;43.216;27.946;2023-02-08T00:13:25;102589.84;;;5.07;52.09
38022;BME280;23832;43.216;27.946;2023-02-08T00:15:26;102595.84;;;5.09;52.00
38022;BME280;23832;43.216;27.946;2023-02-08T00:17:28;102597.50;;;5.10;52.29
38022;BME280;23832;43.216;27.946;2023-02-08T00:19:30;102594.81;;;5.12;51.64
38022;BME280;23832;43.216;27.946;2023-02-08T00:21:33;102591.19;;;5.15;51.65
38022;BME280;23832;43.216;27.946;2023-02-08T00:23:35;102590.25;;;5.16;51.93
38022;BME280;23832;43.216;27.946;2023-02-08T00:25:37;102594.56;;;5.17;52.10
38022;BME280;23832;43.216;27.946;2023-02-08T00:27:39;102598.94;;;5.16;51.97
38022;BME280;23832;43.216;27.946;2023-02-08T00:29:40;102594.56;;;5.17;52.02
38022;BME280;23832;43.216;27.946;2023-02-08T00:31:42;102605.00;;;5.17;52.04
38022;BME280;23832;43.216;27.946;2023-02-08T00:33:45;102605.00;;;5.17;51.62
38022;BME280;23832;43.216;27.946;2023-02-08T00:35:47;102606.88;;;5.15;51.56
38022;BME280;23832;43.216;27.946;2023-02-08T00:37:50;102604.25;;;5.15;51.95
38022;BME280;23832;43.216;27.946;2023-02-08T00:39:52;102600.81;;;5.14;51.53
38022;BME280;23832;43.216;27.946;2023-02-08T00:41:55;102601.66;;;5.15;51.74
38022;BME280;23832;43.216;27.946;2023-02-08T00:43:56;102602.59;;;5.13;51.64
38022;BME280;23832;43.216;27.946;2023-02-08T00:45:59;102602.66;;;5.12;51.76
38022;BME280;23832;43.216;27.946;2023-02-08T00:48:01;102603.53;;;5.12;51.91
38022;BME280;23832;43.216;27.946;2023-02-08T00:50:03;102602.59;;;5.13;51.93
38022;BME280;23832;43.216;27.946;2023-02-08T00:52:05;102606.88;;;5.15;51.53
38022;BME280;23832;43.216;27.946;2023-02-08T00:54:11;102610.44;;;5.13;51.53
38022;BME280;23832;43.216;27.946;2023-02-08T00:56:14;102606.97;;;5.13;51.72
38022;BME280;23832;43.216;27.946;2023-02-08T00:58:16;102612.22;;;5.13;51.87
38022;BME280;23832;43.216;27.946;2023-02-08T01:00:18;102610.44;;;5.13;51.52
38022;BME280;23832;43.216;27.946;2023-02-08T01:02:19;102616.59;;;5.12;51.84
38022;BME280;23832;43.216;27.946;2023-02-08T01:04:21;102620.88;;;5.13;51.93
38022;BME280;23832;43.216;27.946;2023-02-08T01:06:23;102619.22;;;5.12;51.59
38022;BME280;23832;43.216;27.946;2023-02-08T01:08:25;102615.66;;;5.13;51.99
38022;BME280;23832;43.216;27.946;2023-02-08T01:10:28;102626.97;;;5.14;51.67
38022;BME280;23832;43.216;27.946;2023-02-08T01:12:30;102616.59;;;5.12;51.92
38022;BME280;23832;43.216;27.946;2023-02-08T01:14:32;102622.72;;;5.11;51.61
38022;BME280;23832;43.216;27.946;2023-02-08T01:16:33;102625.44;;;5.10;51.59
38022;BME280;23832;43.216;27.946;2023-02-08T01:18:36;102629.81;;;5.09;51.70
38022;BME280;23832;43.216;27.946;2023-02-08T01:20:37;102630.66;;;5.10;51.50
38022;BME280;23832;43.216;27.946;2023-02-08T01:22:39;102628.13;;;5.08;51.35
38022;BME280;23832;43.216;27.946;2023-02-08T01:24:41;102630.84;;;5.07;51.51
38022;BME280;23832;43.216;27.946;2023-02-08T01:26:44;102630.75;;;5.08;51.02
38022;BME280;23832;43.216;27.946;2023-02-08T01:28:46;102624.78;;;5.06;50.73
38022;BME280;23832;43.216;27.946;2023-02-08T01:30:48;102644.94;;;5.04;50.68
38022;BME280;23832;43.216;27.946;2023-02-08T01:32:50;102645.09;;;5.01;50.65
38022;BME280;23832;43.216;27.946;2023-02-08T01:34:52;102641.84;;;4.98;50.24
38022;BME280;23832;43.216;27.946;2023-02-08T01:36:54;102640.31;;;4.94;50.25
38022;BME280;23832;43.216;27.946;2023-02-08T01:38:56;102640.50;;;4.91;49.96
38022;BME280;23832;43.216;27.946;2023-02-08T01:40:57;102645.72;;;4.91;50.47
38022;BME280;23832;43.216;27.946;2023-02-08T01:43:00;102649.91;;;4.93;50.45
38022;BME280;23832;43.216;27.946;2023-02-08T01:47:29;102652.28;;;4.98;49.78
38022;BME280;23832;43.216;27.946;2023-02-08T01:49:32;102648.84;;;4.97;49.77
38022;BME280;23832;43.216;27.946;2023-02-08T01:51:37;102640.16;;;4.97;49.29
38022;BME280;23832;43.216;27.946;2023-02-08T01:53:39;102640.91;;;4.99;49.09
38022;BME280;23832;43.216;27.946;2023-02-08T01:55:43;102629.50;;;5.00;48.77
38022;BME280;23832;43.216;27.946;2023-02-08T01:57:47;102642.59;;;5.00;48.69
38022;BME280;23832;43.216;27.946;2023-02-08T01:59:53;102641.00;;;4.97;47.97
38022;BME280;23832;43.216;27.946;2023-02-08T02:01:56;102645.47;;;4.95;47.48
38022;BME280;23832;43.216;27.946;2023-02-08T02:03:59;102643.94;;;4.91;47.47
38022;BME280;23832;43.216;27.946;2023-02-08T02:06:02;102649.44;;;4.87;47.08
38022;BME280;23832;43.216;27.946;2023-02-08T02:08:06;102642.59;;;4.84;47.34
38022;BME280;23832;43.216;27.946;2023-02-08T02:10:13;102655.84;;;4.81;47.42
38022;BME280;23832;43.216;27.946;2023-02-08T02:12:15;102650.97;;;4.75;47.23
38022;BME280;23832;43.216;27.946;2023-02-08T02:14:18;102647.59;;;4.73;47.38
38022;BME280;23832;43.216;27.946;2023-02-08T02:16:21;102655.44;;;4.73;47.57
38022;BME280;23832;43.216;27.946;2023-02-08T02:18:23;102628.88;;;4.65;47.54
38022;BME280;23832;43.216;27.946;2023-02-08T02:20:35;102646.56;;;4.75;47.52
38022;BME280;23832;43.216;27.946;2023-02-08T02:25:11;102651.75;;;4.77;47.05
38022;BME280;23832;43.216;27.946;2023-02-08T02:27:28;102659.59;;;4.77;47.36
38022;BME280;23832;43.216;27.946;2023-02-08T02:29:46;102666.50;;;4.78;46.90
38022;BME280;23832;43.216;27.946;2023-02-08T02:34:18;102671.13;;;4.73;46.57
38022;BME280;23832;43.216;27.946;2023-02-08T02:36:27;102661.69;;;4.70;46.27
38022;BME280;23832;43.216;27.946;2023-02-08T02:38:37;102661.00;;;4.67;46.03
38022;BME280;23832;43.216;27.946;2023-02-08T02:40:43;102674.25;;;4.64;46.24
38022;BME280;23832;43.216;27.946;2023-02-08T02:42:54;102665.75;;;4.60;45.84
38022;BME280;23832;43.216;27.946;2023-02-08T02:45:17;102678.03;;;4.58;45.73
38022;BME280;23832;43.216;27.946;2023-02-08T02:47:24;102664.28;;;4.54;45.54
38022;BME280;23832;43.216;27.946;2023-02-08T02:49:30;102667.00;;;4.53;45.46
38022;BME280;23832;43.216;27.946;2023-02-08T02:51:36;102659.34;;;4.50;45.65
38022;BME280;23832;43.216;27.946;2023-02-08T02:53:41;102664.63;;;4.48;45.33
38022;BME280;23832;43.216;27.946;2023-02-08T02:55:46;102670.78;;;4.47;45.28
38022;BME280;23832;43.216;27.946;2023-02-08T02:57:50;102667.50;;;4.44;45.18
38022;BME280;23832;43.216;27.946;2023-02-08T02:59:54;102662.44;;;4.41;45.10
38022;BME280;23832;43.216;27.946;2023-02-08T03:01:55;102671.38;;;4.37;45.24
38022;BME280;23832;43.216;27.946;2023-02-08T03:03:57;102671.44;;;4.35;45.29
38022;BME280;23832;43.216;27.946;2023-02-08T03:06:02;102681.97;;;4.34;45.31
38022;BME280;23832;43.216;27.946;2023-02-08T03:08:08;102675.13;;;4.31;44.66
38022;BME280;23832;43.216;27.946;2023-02-08T03:10:25;102670.84;;;4.30;45.15
38022;BME280;23832;43.216;27.946;2023-02-08T03:12:33;102676.06;;;4.30;44.93
38022;BME280;23832;43.216;27.946;2023-02-08T03:14:40;102678.00;;;4.26;44.84
38022;BME280;23832;43.216;27.946;2023-02-08T03:16:49;102679.94;;;4.23;44.71
38022;BME280;23832;43.216;27.946;2023-02-08T03:19:00;102673.94;;;4.21;44.92
38022;BME280;23832;43.216;27.946;2023-02-08T03:21:08;102677.56;;;4.18;44.96
38022;BME280;23832;43.216;27.946;2023-02-08T03:23:12;102677.66;;;4.17;45.16
38022;BME280;23832;43.216;27.946;2023-02-08T03:25:17;102675.03;;;4.17;45.18
38022;BME280;23832;43.216;27.946;2023-02-08T03:27:24;102667.13;;;4.18;45.21
38022;BME280;23832;43.216;27.946;2023-02-08T03:29:36;102676.66;;;4.19;45.17
38022;BME280;23832;43.216;27.946;2023-02-08T03:31:41;102672.25;;;4.20;45.16
38022;BME280;23832;43.216;27.946;2023-02-08T03:33:47;102675.81;;;4.19;45.12
38022;BME280;23832;43.216;27.946;2023-02-08T03:35:51;102680.19;;;4.18;45.31
38022;BME280;23832;43.216;27.946;2023-02-08T03:37:59;102684.47;;;4.19;45.34
38022;BME280;23832;43.216;27.946;2023-02-08T03:40:03;102677.41;;;4.21;45.24
38022;BME280;23832;43.216;27.946;2023-02-08T03:42:07;102679.94;;;4.23;45.30
38022;BME280;23832;43.216;27.946;2023-02-08T03:44:11;102676.41;;;4.24;45.31
38022;BME280;23832;43.216;27.946;2023-02-08T03:46:15;102685.94;;;4.25;45.30
38022;BME280;23832;43.216;27.946;2023-02-08T03:48:18;102674.66;;;4.24;45.07
38022;BME280;23832;43.216;27.946;2023-02-08T03:50:22;102682.63;;;4.21;45.17
38022;BME280;23832;43.216;27.946;2023-02-08T03:52:24;102678.41;;;4.19;45.17
38022;BME280;23832;43.216;27.946;2023-02-08T03:54:29;102675.03;;;4.17;45.07
38022;BME280;23832;43.216;27.946;2023-02-08T03:56:33;102676.81;;;4.16;45.22
38022;BME280;23832;43.216;27.946;2023-02-08T03:58:37;102683.81;;;4.16;45.07
38022;BME280;23832;43.216;27.946;2023-02-08T04:00:41;102683.06;;;4.14;45.10
38022;BME280;23832;43.216;27.946;2023-02-08T04:02:46;102679.66;;;4.12;44.89
38022;BME280;23832;43.216;27.946;2023-02-08T04:04:49;102674.59;;;4.09;45.08
38022;BME280;23832;43.216;27.946;2023-02-08T04:06:52;102678.16;;;4.08;45.23
38022;BME280;23832;43.216;27.946;2023-02-08T04:08:54;102684.13;;;4.10;45.18
38022;BME280;23832;43.216;27.946;2023-02-08T04:10:57;102681.50;;;4.10;45.18
38022;BME280;23832;43.216;27.946;2023-02-08T04:12:59;102684.22;;;4.08;45.17
38022;BME280;23832;43.216;27.946;2023-02-08T04:15:01;102676.47;;;4.07;45.11
38022;BME280;23832;43.216;27.946;2023-02-08T04:17:02;102689.75;;;4.02;45.30
38022;BME280;23832;43.216;27.946;2023-02-08T04:19:04;102691.69;;;3.98;45.49
38022;BME280;23832;43.216;27.946;2023-02-08T04:21:06;102685.69;;;3.96;45.54
38022;BME280;23832;43.216;27.946;2023-02-08T04:23:07;102701.41;;;3.95;45.39
38022;BME280;23832;43.216;27.946;2023-02-08T04:25:09;102701.50;;;3.93;46.15
38022;BME280;23832;43.216;27.946;2023-02-08T04:27:12;102709.34;;;3.93;46.20
38022;BME280;23832;43.216;27.946;2023-02-08T04:29:14;102704.03;;;3.95;46.57
38022;BME280;23832;43.216;27.946;2023-02-08T04:31:16;102704.81;;;3.97;46.53
38022;BME280;23832;43.216;27.946;2023-02-08T04:33:18;102713.41;;;3.99;46.45
38022;BME280;23832;43.216;27.946;2023-02-08T04:35:19;102712.38;;;4.02;46.38
38022;BME280;23832;43.216;27.946;2023-02-08T04:37:21;102726.19;;;4.04;46.54
38022;BME280;23832;43.216;27.946;2023-02-08T04:39:23;102713.94;;;4.06;46.19
38022;BME280;23832;43.216;27.946;2023-02-08T04:41:24;102718.31;;;4.05;45.94
38022;BME280;23832;43.216;27.946;2023-02-08T04:43:27;102721.69;;;4.07;46.06
38022;BME280;23832;43.216;27.946;2023-02-08T04:45:29;102716.53;;;4.06;45.85
38022;BME280;23832;43.216;27.946;2023-02-08T04:47:31;102740.19;;;4.03;45.88
38022;BME280;23832;43.216;27.946;2023-02-08T04:49:33;102765.53;;;4.01;45.64
38022;BME280;23832;43.216;27.946;2023-02-08T04:51:35;102773.34;;;4.01;46.42
38022;BME280;23832;43.216;27.946;2023-02-08T04:53:37;102798.38;;;4.05;47.42
38022;BME280;23832;43.216;27.946;2023-02-08T04:55:39;102796.53;;;4.07;48.27
38022;BME280;23832;43.216;27.946;2023-02-08T04:57:40;102804.19;;;4.10;48.45
38022;BME280;23832;43.216;27.946;2023-02-08T04:59:43;102800.66;;;4.11;48.32
38022;BME280;23832;43.216;27.946;2023-02-08T05:01:45;102814.66;;;4.10;48.33
38022;BME280;23832;43.216;27.946;2023-02-08T05:03:46;102817.16;;;4.11;48.37
38022;BME280;23832;43.216;27.946;2023-02-08T05:05:55;102805.88;;;4.11;48.46
38022;BME280;23832;43.216;27.946;2023-02-08T05:07:57;102803.28;;;4.11;48.31
38022;BME280;23832;43.216;27.946;2023-02-08T05:09:59;102808.50;;;4.11;47.99
38022;BME280;23832;43.216;27.946;2023-02-08T05:12:00;102813.81;;;4.09;47.99
38022;BME280;23832;43.216;27.946;2023-02-08T05:14:02;102812.13;;;4.08;47.80
38022;BME280;23832;43.216;27.946;2023-02-08T05:16:06;102810.44;;;4.07;47.70
38022;BME280;23832;43.216;27.946;2023-02-08T05:18:08;102814.81;;;4.07;47.86
38022;BME280;23832;43.216;27.946;2023-02-08T05:20:10;102819.19;;;4.06;47.43
38022;BME280;23832;43.216;27.946;2023-02-08T05:22:12;102810.56;;;4.04;47.49
38022;BME280;23832;43.216;27.946;2023-02-08T05:24:13;102810.66;;;4.03;47.69
38022;BME280;23832;43.216;27.946;2023-02-08T05:26:15;102808.88;;;4.03;47.67
38022;BME280;23832;43.216;27.946;2023-02-08T05:28:18;102807.13;;;4.04;47.42
38022;BME280;23832;43.216;27.946;2023-02-08T05:30:19;102814.03;;;4.05;47.59
38022;BME280;23832;43.216;27.946;2023-02-08T05:32:23;102800.06;;;4.06;47.44
38022;BME280;23832;43.216;27.946;2023-02-08T05:34:24;102796.63;;;4.05;47.22
38022;BME280;23832;43.216;27.946;2023-02-08T05:36:26;102787.03;;;4.06;47.32
38022;BME280;23832;43.216;27.946;2023-02-08T05:38:28;102799.16;;;4.07;47.26
38022;BME280;23832;43.216;27.946;2023-02-08T05:40:30;102805.22;;;4.07;47.25
38022;BME280;23832;43.216;27.946;2023-02-08T05:42:32;102805.88;;;4.11;47.57
38022;BME280;23832;43.216;27.946;2023-02-08T05:44:34;102801.38;;;4.14;47.49
38022;BME280;23832;43.216;27.946;2023-02-08T05:46:36;102801.13;;;4.19;47.42
38022;BME280;23832;43.216;27.946;2023-02-08T05:48:44;102810.41;;;4.24;47.32
38022;BME280;23832;43.216;27.946;2023-02-08T05:50:45;102814.47;;;4.30;47.47
38022;BME280;23832;43.216;27.946;2023-02-08T05:52:47;102814.91;;;4.38;47.71
38022;BME280;23832;43.216;27.946;2023-02-08T05:54:49;102819.75;;;4.46;47.63
38022;BME280;23832;43.216;27.946;2023-02-08T05:56:50;102811.44;;;4.55;47.60
38022;BME280;23832;43.216;27.946;2023-02-08T05:58:52;102803.19;;;4.63;47.49
38022;BME280;23832;43.216;27.946;2023-02-08T06:00:54;102806.16;;;4.72;48.00
38022;BME280;23832;43.216;27.946;2023-02-08T06:02:56;102804.59;;;4.86;48.27
38022;BME280;23832;43.216;27.946;2023-02-08T06:04:59;102814.19;;;5.01;47.98
38022;BME280;23832;43.216;27.946;2023-02-08T06:07:01;102809.91;;;5.16;47.98
38022;BME280;23832;43.216;27.946;2023-02-08T06:09:03;102814.34;;;5.29;47.50
38022;BME280;23832;43.216;27.946;2023-02-08T06:11:05;102822.19;;;5.45;47.66
38022;BME280;23832;43.216;27.946;2023-02-08T06:13:06;102827.41;;;5.61;47.82
38022;BME280;23832;43.216;27.946;2023-02-08T06:15:08;102825.44;;;5.80;48.27
38022;BME280;23832;43.216;27.946;2023-02-08T06:17:10;102818.31;;;5.98;47.90
38022;BME280;23832;43.216;27.946;2023-02-08T06:19:12;102814.50;;;6.18;48.12
38022;BME280;23832;43.216;27.946;2023-02-08T06:21:15;102810.78;;;6.36;47.60
38022;BME280;23832;43.216;27.946;2023-02-08T06:23:17;102808.00;;;6.53;46.84
38022;BME280;23832;43.216;27.946;2023-02-08T06:25:19;102821.75;;;6.71;47.01
38022;BME280;23832;43.216;27.946;2023-02-08T06:27:21;102823.97;;;6.92;47.44
38022;BME280;23832;43.216;27.946;2023-02-08T06:29:22;102825.28;;;7.13;47.31
38022;BME280;23832;43.216;27.946;2023-02-08T06:31:24;102822.22;;;7.33;46.89
38022;BME280;23832;43.216;27.946;2023-02-08T06:33:26;102818.19;;;7.55;46.95
38022;BME280;23832;43.216;27.946;2023-02-08T06:35:28;102807.25;;;7.75;46.06
38022;BME280;23832;43.216;27.946;2023-02-08T06:37:31;102813.16;;;7.91;45.35
38022;BME280;23832;43.216;27.946;2023-02-08T06:39:33;102819.69;;;8.11;45.53
38022;BME280;23832;43.216;27.946;2023-02-08T06:41:35;102813.38;;;8.26;45.45
38022;BME280;23832;43.216;27.946;2023-02-08T06:43:37;102815.53;;;8.47;45.88
38022;BME280;23832;43.216;27.946;2023-02-08T06:45:42;102813.09;;;8.69;46.72
38022;BME280;23832;43.216;27.946;2023-02-08T06:47:44;102806.22;;;8.92;46.65
38022;BME280;23832;43.216;27.946;2023-02-08T06:49:46;102820.03;;;9.07;45.52
38022;BME280;23832;43.216;27.946;2023-02-08T06:51:48;102815.00;;;9.17;45.47
38022;BME280;23832;43.216;27.946;2023-02-08T06:53:52;102818.22;;;9.20;44.71
38022;BME280;23832;43.216;27.946;2023-02-08T06:55:54;102835.59;;;9.23;44.31
38022;BME280;23832;43.216;27.946;2023-02-08T06:57:56;102828.03;;;9.18;43.36
38022;BME280;23832;43.216;27.946;2023-02-08T06:59:58;102837.31;;;9.11;42.92
38022;BME280;23832;43.216;27.946;2023-02-08T07:01:59;102832.94;;;8.99;42.45
38022;BME280;23832;43.216;27.946;2023-02-08T07:04:01;102839.78;;;8.89;42.78
38022;BME280;23832;43.216;27.946;2023-02-08T07:06:02;102844.72;;;8.80;42.99
38022;BME280;23832;43.216;27.946;2023-02-08T07:08:04;102842.97;;;8.81;43.16
38022;BME280;23832;43.216;27.946;2023-02-08T07:10:08;102848.72;;;8.86;44.19
38022;BME280;23832;43.216;27.946;2023-02-08T07:12:10;102852.91;;;9.01;44.88
38022;BME280;23832;43.216;27.946;2023-02-08T07:14:12;102853.72;;;9.15;45.32
38022;BME280;23832;43.216;27.946;2023-02-08T07:16:15;102850.09;;;9.28;45.50
38022;BME280;23832;43.216;27.946;2023-02-08T07:18:16;102840.34;;;9.42;44.99
38022;BME280;23832;43.216;27.946;2023-02-08T07:20:18;102843.16;;;9.51;45.02
38022;BME280;23832;43.216;27.946;2023-02-08T07:22:20;102847.03;;;9.58;44.56
38022;BME280;23832;43.216;27.946;2023-02-08T07:24:22;102841.09;;;9.67;44.53
38022;BME280;23832;43.216;27.946;2023-02-08T07:26:26;102849.25;;;9.76;44.03
38022;BME280;23832;43.216;27.946;2023-02-08T07:28:27;102850.09;;;9.76;43.15
38022;BME280;23832;43.216;27.946;2023-02-08T07:30:29;102840.00;;;9.70;42.25
38022;BME280;23832;43.216;27.946;2023-02-08T07:32:31;102834.81;;;9.57;41.49
38022;BME280;23832;43.216;27.946;2023-02-08T07:34:35;102822.44;;;9.47;42.12
38022;BME280;23832;43.216;27.946;2023-02-08T07:36:37;102838.06;;;9.37;42.21
38022;BME280;23832;43.216;27.946;2023-02-08T07:38:38;102826.53;;;9.27;41.83
38022;BME280;23832;43.216;27.946;2023-02-08T07:40:40;102835.16;;;9.16;42.20
38022;BME280;23832;43.216;27.946;2023-02-08T07:42:43;102821.84;;;9.06;41.85
38022;BME280;23832;43.216;27.946;2023-02-08T07:44:45;102817.34;;;8.96;41.58
38022;BME280;23832;43.216;27.946;2023-02-08T07:46:47;102829.59;;;8.84;41.39
38022;BME280;23832;43.216;27.946;2023-02-08T07:48:48;102822.56;;;8.72;41.40
38022;BME280;23832;43.216;27.946;2023-02-08T07:50:53;102826.69;;;8.63;41.57
38022;BME280;23832;43.216;27.946;2023-02-08T07:53:06;102815.94;;;8.53;41.53
38022;BME280;23832;43.216;27.946;2023-02-08T07:55:08;102825.31;;;8.45;41.42
38022;BME280;23832;43.216;27.946;2023-02-08T07:57:10;102832.78;;;8.38;41.04
38022;BME280;23832;43.216;27.946;2023-02-08T07:59:13;102835.91;;;8.31;41.08
38022;BME280;23832;43.216;27.946;2023-02-08T08:01:15;102843.56;;;8.21;40.92
38022;BME280;23832;43.216;27.946;2023-02-08T08:03:17;102829.56;;;8.08;41.08
38022;BME280;23832;43.216;27.946;2023-02-08T08:05:19;102837.31;;;7.96;41.46
38022;BME280;23832;43.216;27.946;2023-02-08T08:07:21;102835.31;;;7.87;41.37
38022;BME280;23832;43.216;27.946;2023-02-08T08:09:22;102847.16;;;7.80;42.02
38022;BME280;23832;43.216;27.946;2023-02-08T08:11:24;102833.69;;;7.72;42.01
38022;BME280;23832;43.216;27.946;2023-02-08T08:13:26;102835.03;;;7.65;42.48
38022;BME280;23832;43.216;27.946;2023-02-08T08:15:29;102846.78;;;7.59;42.86
38022;BME280;23832;43.216;27.946;2023-02-08T08:17:31;102844.44;;;7.55;42.81
38022;BME280;23832;43.216;27.946;2023-02-08T08:19:32;102858.72;;;7.51;42.60
38022;BME280;23832;43.216;27.946;2023-02-08T08:21:34;102853.66;;;7.48;42.36
38022;BME280;23832;43.216;27.946;2023-02-08T08:23:36;102840.94;;;7.42;42.25
38022;BME280;23832;43.216;27.946;2023-02-08T08:25:38;102850.03;;;7.36;42.63
38022;BME280;23832;43.216;27.946;2023-02-08T08:27:39;102845.09;;;7.31;42.61
38022;BME280;23832;43.216;27.946;2023-02-08T08:29:41;102840.78;;;7.30;42.68
38022;BME280;23832;43.216;27.946;2023-02-08T08:31:47;102846.97;;;7.29;42.85
38022;BME280;23832;43.216;27.946;2023-02-08T08:33:49;102830.28;;;7.30;42.96
38022;BME280;23832;43.216;27.946;2023-02-08T08:35:50;102850.13;;;7.34;43.29
38022;BME280;23832;43.216;27.946;2023-02-08T08:37:52;102851.16;;;7.46;43.39
38022;BME280;23832;43.216;27.946;2023-02-08T08:39:55;102846.28;;;7.67;44.50
38022;BME280;23832;43.216;27.946;2023-02-08T08:41:57;102842.56;;;7.96;44.88
38022;BME280;23832;43.216;27.946;2023-02-08T08:43:58;102833.56;;;8.26;45.50
38022;BME280;23832;43.216;27.946;2023-02-08T08:46:00;102837.63;;;8.57;45.38
38022;BME280;23832;43.216;27.946;2023-02-08T08:48:03;102846.63;;;8.78;44.83
38022;BME280;23832;43.216;27.946;2023-02-08T08:50:05;102835.47;;;8.88;43.59
38022;BME280;23832;43.216;27.946;2023-02-08T08:52:07;102839.75;;;9.01;43.74
38022;BME280;23832;43.216;27.946;2023-02-08T08:54:09;102846.34;;;9.20;43.61
38022;BME280;23832;43.216;27.946;2023-02-08T08:56:11;102832.56;;;9.40;43.75
38022;BME280;23832;43.216;27.946;2023-02-08T08:58:12;102827.03;;;9.56;43.14
38022;BME280;23832;43.216;27.946;2023-02-08T09:00:14;102844.13;;;9.74;43.23
38022;BME280;23832;43.216;27.946;2023-02-08T09:02:16;102860.25;;;10.05;43.75
38022;BME280;23832;43.216;27.946;2023-02-08T09:04:19;102846.09;;;10.41;44.22
38022;BME280;23832;43.216;27.946;2023-02-08T09:06:22;102858.25;;;10.77;44.75
38022;BME280;23832;43.216;27.946;2023-02-08T09:08:23;102850.44;;;11.09;44.30
38022;BME280;23832;43.216;27.946;2023-02-08T09:10:25;102865.28;;;11.32;43.53
38022;BME280;23832;43.216;27.946;2023-02-08T09:12:27;102859.97;;;11.44;42.20
38022;BME280;23832;43.216;27.946;2023-02-08T09:14:28;102846.84;;;11.53;41.95
38022;BME280;23832;43.216;27.946;2023-02-08T09:16:30;102859.44;;;11.61;41.26
38022;BME280;23832;43.216;27.946;2023-02-08T09:18:33;102855.06;;;11.71;41.37
38022;BME280;23832;43.216;27.946;2023-02-08T09:20:38;102857.31;;;11.76;39.95
38022;BME280;23832;43.216;27.946;2023-02-08T09:22:40;102870.66;;;11.74;39.28
38022;BME280;23832;43.216;27.946;2023-02-08T09:24:42;102863.38;;;11.66;38.90
38022;BME280;23832;43.216;27.946;2023-02-08T09:26:44;102866.88;;;11.56;38.45
38022;BME280;23832;43.216;27.946;2023-02-08T09:28:46;102855.03;;;11.50;38.44
38022;BME280;23832;43.216;27.946;2023-02-08T09:30:48;102851.66;;;11.59;39.36
38022;BME280;23832;43.216;27.946;2023-02-08T09:32:50;102865.50;;;11.84;41.03
38022;BME280;23832;43.216;27.946;2023-02-08T09:34:51;102859.78;;;12.20;41.19
38022;BME280;23832;43.216;27.946;2023-02-08T09:36:55;102852.91;;;12.60;41.61
38022;BME280;23832;43.216;27.946;2023-02-08T09:38:58;102863.94;;;12.95;40.68
38022;BME280;23832;43.216;27.946;2023-02-08T09:41:02;102857.91;;;13.24;40.18
38022;BME280;23832;43.216;27.946;2023-02-08T09:43:09;102874.81;;;13.42;39.13
38022;BME280;23832;43.216;27.946;2023-02-08T09:45:26;102870.63;;;13.49;38.45
38022;BME280;23832;43.216;27.946;2023-02-08T09:47:32;102871.63;;;13.48;37.82
38022;BME280;23832;43.216;27.946;2023-02-08T09:49:34;102875.50;;;13.44;37.79
38022;BME280;23832;43.216;27.946;2023-02-08T09:51:38;102852.78;;;13.42;38.05
38022;BME280;23832;43.216;27.946;2023-02-08T09:53:43;102866.16;;;13.40;38.22
38022;BME280;23832;43.216;27.946;2023-02-08T09:55:50;102855.41;;;13.42;37.76
38022;BME280;23832;43.216;27.946;2023-02-08T09:57:52;102852.91;;;13.40;37.53
38022;BME280;23832;43.216;27.946;2023-02-08T10:00:01;102859.03;;;13.31;37.33
38022;BME280;23832;43.216;27.946;2023-02-08T10:02:10;102846.81;;;13.09;36.95
38022;BME280;23832;43.216;27.946;2023-02-08T10:04:18;102845.75;;;12.81;36.74
38022;BME280;23832;43.216;27.946;2023-02-08T10:06:22;102847.16;;;12.55;37.49
38022;BME280;23832;43.216;27.946;2023-02-08T10:08:24;102850.22;;;12.29;38.11
38022;BME280;23832;43.216;27.946;2023-02-08T10:10:32;102850.63;;;12.04;37.74
38022;BME280;23832;43.216;27.946;2023-02-08T10:12:39;102876.44;;;11.79;37.92
38022;BME280;23832;43.216;27.946;2023-02-08T10:14:46;102851.16;;;11.54;38.29
38022;BME280;23832;43.216;27.946;2023-02-08T10:16:54;102860.94;;;11.31;38.72
38022;BME280;23832;43.216;27.946;2023-02-08T10:19:00;102845.75;;;11.01;38.61
38022;BME280;23832;43.216;27.946;2023-02-08T10:21:16;102844.34;;;10.75;39.39
38022;BME280;23832;43.216;27.946;2023-02-08T10:23:27;102852.59;;;10.48;39.14
38022;BME280;23832;43.216;27.946;2023-02-08T10:25:38;102854.38;;;10.25;40.09
38022;BME280;23832;43.216;27.946;2023-02-08T10:27:45;102857.75;;;10.03;40.18
38022;BME280;23832;43.216;27.946;2023-02-08T10:29:54;102861.28;;;9.80;40.36
38022;BME280;23832;43.216;27.946;2023-02-08T10:32:05;102856.13;;;9.54;40.83
38022;BME280;23832;43.216;27.946;2023-02-08T10:34:17;102836.59;;;9.33;41.17
38022;BME280;23832;43.216;27.946;2023-02-08T10:36:24;102855.63;;;9.13;41.86
38022;BME280;23832;43.216;27.946;2023-02-08T10:38:28;102856.91;;;8.94;42.30
38022;BME280;23832;43.216;27.946;2023-02-08T10:40:34;102864.09;;;8.79;42.32
38022;BME280;23832;43.216;27.946;2023-02-08T10:42:39;102859.81;;;8.66;42.47
38022;BME280;23832;43.216;27.946;2023-02-08T10:44:49;102858.00;;;8.53;42.78
38022;BME280;23832;43.216;27.946;2023-02-08T10:46:58;102860.53;;;8.42;43.64
38022;BME280;23832;43.216;27.946;2023-02-08T10:49:04;102853.22;;;8.33;43.89
38022;BME280;23832;43.216;27.946;2023-02-08T10:51:08;102862.28;;;8.29;43.54